Weather observations for the past three days for
Columbia, Columbia Regional Airport
Imperial (Metric)
Date Time (cdt) Wind (mph) Vis. (mi.) Weather Sky Cond. Temperature (ºF) Relative Humidity Wind Chill (°F) Heat Index (°F) Pressure Precipitation (in)
Air Dwpt 6 hour altimeter (in) sea level (mb) 1 hr 3 hr 6 hr
Max. Min.
10 11:54 NE 6 10.00 Mostly Cloudy BKN110 57.9 39 50% 30.15 1020.7
10 10:54 N 8 10.00 Overcast OVC095 57.9 39.9 51% 30.15 1020.7
10 09:54 N 8 10.00 Partly Cloudy FEW095 SCT110 59 37.9 46% 30.15 1020.7
10 08:54 NE 8 10.00 Partly Cloudy SCT110 57.9 37.9 48% 30.12 1019.8
10 07:54 NE 10 10.00 Fair CLR 55.9 37.9 51% 30.09 1018.4
10 06:54 N 7 10.00 Mostly Cloudy BKN110 54 37.9 60.1 53.1 55% 30.07 1017.9
10 05:54 NE 8 10.00 Mostly Cloudy BKN100 55 39 55% 30.04 1016.8
10 04:54 NE 10 10.00 Mostly Cloudy BKN100 55.9 39.9 55% 30.01 1015.7
10 03:54 NE 13 10.00 Mostly Cloudy BKN110 57.9 44.1 60% 29.99 1014.9
10 02:54 N 10 10.00 Mostly Cloudy BKN100 57.9 52 81% 29.96 1013.9
10 01:54 Calm 10.00 Mostly Cloudy BKN110 59 53.1 81% 29.96 1013.9
10 00:54 NE 6 10.00 Partly Cloudy SCT110 60.1 54 77 60.1 80% 29.94 1013.5 0.01
09 23:54 N 8 10.00 Partly Cloudy SCT110 61 55.9 84% 29.92 1012.8
09 22:54 N 5 10.00 Overcast OVC100 61 57.9 90% 29.89 1011.7 0.01
09 21:54 NE 5 10.00 Overcast OVC090 62.1 57 84% 29.87 1011.0
09 20:54 N 14 10.00 Overcast OVC095 63 57 81% 29.84 1010.1
09 19:54 S 7 10.00 Fair CLR 71.1 55.9 59% 29.77 1007.5
09 18:54 SW 8 10.00 Fair CLR 77 55 80.1 73.9 47% 78 29.77 1007.4
09 17:54 W 8 10.00 Fair CLR 79 51.1 38% 79 29.77 1007.6
09 16:54 W 10 10.00 Fair CLR 80.1 50 35% 80 29.77 1007.6
09 15:54 W 8 10.00 Fair CLR 79 51.1 38% 79 29.79 1008.1
09 14:54 NW 8 8.00 Fair CLR 79 50 36% 79 29.79 1008.3
09 13:54 NW 9 10.00 Fair CLR 75.9 52 43% 78 29.8 1008.7
09 12:54 W 8 G 18 10.00 Fair CLR 73.9 55 73.9 53.1 52% 29.82 1009.3
09 11:54 W 13 10.00 Fair CLR 72 57 59% 29.83 1009.7
09 10:54 W 12 10.00 Fair CLR 69.1 57.9 68% 29.82 1009.6
09 09:54 SW 13 10.00 Fair CLR 64 57 78% 29.82 1009.4
09 08:54 SW 8 10.00 A Few Clouds FEW005 57 55.9 96% 29.82 1009.4
09 07:54 SW 7 9.00 Overcast OVC003 55 54 96% 29.8 1009.0
09 06:54 SW 7 2.50 Fog/Mist OVC002 53.1 53.1 53.1 53.1 100% 29.8 1008.8
09 05:54 SW 7 7.00 Overcast OVC002 53.1 53.1 100% 29.8 1008.8
09 04:54 SW 10 0.50 Fog VV002 53.1 53.1 100% 29.79 1008.6
09 03:54 W 7 0.50 Fog VV002 53.1 53.1 100% 29.78 1008.2
09 02:54 SW 6 0.50 Fog VV002 53.1 53.1 100% 29.77 1007.7
09 01:54 SW 8 0.25 Fog VV002 53.1 53.1 100% 29.78 1008.0
09 00:54 S 3 0.25 Fog VV002 52 52 57.9 52 100% 29.78 1008.1 0.59
08 23:54 W 6 0.25 Fog VV001 53.1 53.1 100% 29.79 1008.6
08 22:54 SW 5 8.00 Fair CLR 53.1 53.1 100% 29.79 1008.7
08 21:54 Calm 10.00 A Few Clouds FEW120 55 54 96% 29.79 1008.6 0.59
08 20:54 Vrbl 5 10.00 Light Rain OVC070 55.9 54 93% 29.8 1008.8 0.15
08 19:54 S 6 7.00 Rain OVC060 55 54 96% 29.79 1008.7 0.44
08 18:54 NW 14 9.00 Light Rain FEW028 BKN048 OVC055 57.9 57 66.9 57.9 97% 29.8 1008.9 0.01 0.13
08 17:54 NE 8 7.00 Light Rain SCT048 BKN060 OVC075 59 57.9 96% 29.78 1008.4 0.1
08 16:54 NW 7 10.00 Overcast FEW046 BKN080 OVC095 62.1 57 84% 29.8 1008.9
08 15:54 W 6 10.00 Overcast FEW070 OVC085 62.1 55.9 80% 29.8 1009.1 0.02 0.02
08 14:54 W 14 10.00 Mostly Cloudy FEW028 FEW085 BKN110 66 53.1 63% 29.83 1009.9
08 13:54 W 13 10.00 A Few Clouds FEW070 FEW110 66.9 52 59% 29.84 1010.1
08 12:54 SW 10 G 20 10.00 Overcast OVC110 64.9 51.1 64.9 50 61% 29.84 1010.1
08 11:54 SW 13 10.00 Mostly Cloudy BKN110 61 48.9 65% 29.85 1010.6
08 10:54 SW 8 10.00 Overcast FEW050 OVC110 57.9 48 70% 29.88 1011.8
08 09:54 SW 10 10.00 Overcast FEW065 OVC090 57 46.9 69% 29.89 1012.1
08 08:54 S 8 10.00 Overcast OVC100 54 46 75% 29.89 1012.0
08 07:54 S 10 10.00 Overcast OVC100 52 45 77% 29.89 1011.8
08 06:54 S 8 10.00 Fair CLR 50 44.1 52 48 80% 47 29.87 1011.2
08 05:54 S 9 10.00 Fair CLR 48 43 83% 44 29.86 1011.2
08 04:54 S 9 10.00 Fair CLR 48.9 43 80% 45 29.86 1010.9
08 03:54 S 8 10.00 Fair CLR 50 43 77% 47 29.87 1011.2
08 02:54 S 7 10.00 Fair CLR 50 43 77% 48 29.88 1011.6
08 01:54 S 7 10.00 Fair CLR 51.1 43 74% 29.9 1012.2
08 00:54 S 7 10.00 Fair CLR 52 43 64 52 72% 29.91 1012.6
07 23:54 S 8 10.00 Fair CLR 53.1 43 69% 29.92 1013.0
07 22:54 S 7 10.00 Fair CLR 52 43 72% 29.93 1013.3
07 21:54 S 8 10.00 Fair CLR 54 43 67% 29.92 1013.1
07 20:54 S 7 10.00 Fair CLR 55.9 43 62% 29.91 1012.8
07 19:54 SW 6 10.00 Fair CLR 61 42.1 50% 29.91 1012.7
07 18:54 SW 13 10.00 Fair CLR 64 42.1 66.9 62.1 45% 29.9 1012.4
07 17:54 SW 9 G 20 10.00 A Few Clouds FEW065 63 42.1 47% 29.91 1012.7
07 16:54 SW 13 G 23 10.00 A Few Clouds FEW065 64.9 41 42% 29.92 1013.1
07 15:54 W 15 G 26 10.00 Mostly Cloudy BKN070 64 39.9 41% 29.93 1013.5
07 14:54 SW 13 10.00 Mostly Cloudy BKN065 BKN080 64 41 43% 29.96 1014.5
07 13:54 SW 18 G 23 10.00 Mostly Cloudy SCT060 BKN080 64.9 41 42% 29.97 1014.9
Date Time (cdt) Wind (mph) Vis. (mi.) Weather Sky Cond. Air Dwpt Max. Min. Relative Humidity Wind Chill (°F) Heat Index (°F) altimeter (in) sea level (mb) 1 hr 3 hr 6 hr
6 hour
Temperature (ºF) Pressure Precipitation (in)